Data for 11/24/2008

Time Sea-Level Adjusted Pressure Absolute Pressure Temperature Relative Humidity Dew Point   
(mb) (inHg) (mb) (inHg) (C) (F) (%) (C) (F)
00:05 1026 30.3 855 25.25 -5.4 22.3 69 -10.2 13.7
00:10 1026 30.3 855 25.25 -5 22.9 67 -10.3 13.5
00:15 1026 30.3 855 25.25 -5.1 22.8 67 -10.4 13.3
00:20 1026 30.3 855 25.25 -4.9 23.2 64 -10.7 12.8
00:25 1026 30.3 855 25.25 -4.9 23.3 65 -10.5 13.1
00:30 1026 30.3 855 25.25 -5 23.1 64 -10.7 12.8
00:35 1026 30.3 855 25.25 -5 23 64 -10.8 12.5
00:40 1026 30.3 855 25.25 -4.8 23.4 63 -10.7 12.7
00:45 1026 30.3 855 25.25 -5.2 22.7 65 -10.9 12.4
00:50 1025 30.27 855 25.25 -5.4 22.2 65 -11 12.2
00:55 1025 30.27 855 25.25 -5.3 22.4 63 -11.2 11.8
01:00 1025 30.27 855 25.25 -4.8 23.4 62 -11 12.3
01:05 1025 30.27 855 25.25 -4.4 24 61 -10.9 12.3
01:10 1026 30.3 855 25.25 -4.4 24.1 61 -10.8 12.5
01:15 1026 30.3 855 25.25 -4.4 24 61 -11 12.3
01:20 1026 30.3 855 25.25 -4.1 24.7 59 -11 12.3
01:25 1025 30.27 855 25.25 -4.1 24.7 62 -10.4 13.3
01:30 1025 30.27 855 25.25 -4 24.8 62 -10.2 13.6
01:35 1025 30.27 855 25.25 -4.5 23.9 64 -10.3 13.5
01:40 1025 30.27 855 25.25 -4.9 23.2 63 -10.9 12.4
01:45 1025 30.27 855 25.25 -4.8 23.3 66 -10.3 13.5
01:50 1025 30.27 855 25.25 -5 23 66 -10.4 13.3
01:55 1025 30.27 854 25.22 -5.2 22.6 68 -10.3 13.4
02:00 1025 30.27 854 25.22 -5.4 22.2 69 -10.3 13.4
02:05 1025 30.27 854 25.22 -5.4 22.3 67 -10.6 13
02:10 1025 30.27 854 25.22 -5.4 22.2 64 -11.1 12
02:15 1025 30.27 854 25.22 -5.3 22.4 65 -11 12.2
02:20 1025 30.27 854 25.22 -5.6 22 65 -11.1 11.9
02:25 1025 30.27 854 25.22 -5.7 21.8 66 -11.1 12.1
02:30 1025 30.27 854 25.22 -5.7 21.7 66 -11.1 12
02:35 1025 30.27 854 25.22 -5.5 22 64 -11.3 11.6
02:40 1025 30.27 854 25.22 -5.5 22.1 65 -11.1 12.1
02:45 1025 30.27 854 25.22 -5.6 22 65 -11.2 11.9
02:50 1025 30.27 854 25.22 -5.4 22.3 64 -11.2 11.8
02:55 1025 30.27 854 25.22 -5.2 22.6 63 -11.2 11.9
03:00 1025 30.27 854 25.22 -5.4 22.4 65 -11 12.3
03:05 1025 30.27 854 25.22 -5.6 21.9 65 -11.2 11.9
03:10 1025 30.27 854 25.22 -5.7 21.7 65 -11.3 11.7
03:15 1025 30.27 854 25.22 -5.8 21.6 66 -11.2 11.8
03:20 1025 30.27 854 25.22 -5.4 22.3 63 -11.4 11.4
03:25 1025 30.27 854 25.22 -5 23.1 60 -11.5 11.2
03:30 1025 30.27 854 25.22 -4.8 23.4 59 -11.5 11.3
03:35 1025 30.27 854 25.22 -4.5 23.8 59 -11.5 11.4
03:40 1025 30.27 854 25.22 -4.7 23.5 60 -11.4 11.5
03:45 1025 30.27 854 25.22 -5.1 22.9 62 -11.3 11.6
03:50 1025 30.27 854 25.22 -5.4 22.3 63 -11.5 11.4
03:55 1024 30.24 854 25.22 -5.9 21.4 65 -11.5 11.3
04:00 1024 30.24 854 25.22 -6.3 20.7 68 -11.2 11.8
04:05 1024 30.24 854 25.22 -6.5 20.3 70 -11.2 11.9
04:10 1024 30.24 854 25.22 -6.1 21 67 -11.3 11.7
04:15 1024 30.24 853 25.19 -5.2 22.6 66 -10.7 12.7
04:20 1024 30.24 853 25.19 -5.1 22.8 65 -10.7 12.7
04:25 1024 30.24 853 25.19 -4.7 23.6 63 -10.6 12.9
04:30 1024 30.24 853 25.19 -5 23 65 -10.5 13.1
04:35 1024 30.24 853 25.19 -5.4 22.4 65 -11 12.3
04:40 1024 30.24 853 25.19 -5.2 22.7 64 -10.9 12.3
04:45 1024 30.24 853 25.19 -5 23.1 64 -10.7 12.8
04:50 1024 30.24 853 25.19 -4.7 23.5 65 -10.4 13.2
04:55 1024 30.24 853 25.19 -5.8 21.6 68 -10.7 12.7
05:00 1024 30.24 853 25.19 -6.1 21 69 -10.9 12.3
05:05 1024 30.24 853 25.19 -5.6 21.9 66 -11.1 12.1
05:10 1024 30.24 853 25.19 -5 23 64 -10.8 12.6
05:15 1024 30.24 853 25.19 -5.5 22.1 67 -10.7 12.8
05:20 1024 30.24 853 25.19 -6.1 21.1 67 -11.3 11.7
05:25 1024 30.24 853 25.19 -5.7 21.7 64 -11.5 11.3
05:30 1024 30.24 854 25.22 -5.7 21.8 67 -10.8 12.5
05:35 1024 30.24 854 25.22 -6 21.2 65 -11.5 11.3
05:40 1024 30.24 854 25.22 -5.5 22.2 63 -11.5 11.3
05:45 1024 30.24 854 25.22 -5.2 22.6 62 -11.5 11.3
05:50 1024 30.24 854 25.22 -5.4 22.3 62 -11.5 11.3
05:55 1024 30.24 854 25.22 -5.7 21.8 67 -10.9 12.4
06:00 1024 30.24 854 25.22 -6 21.3 66 -11.4 11.5
06:05 1024 30.24 854 25.22 -5.9 21.3 66 -11.2 11.8
06:10 1025 30.27 854 25.22 -5.8 21.6 66 -11.1 11.9
06:15 1025 30.27 854 25.22 -5.7 21.8 65 -11.2 11.8
06:20 1025 30.27 854 25.22 -5.7 21.7 62 -11.8 10.7
06:25 1025 30.27 854 25.22 -6.1 21.1 67 -11.2 11.9
06:30 1025 30.27 854 25.22 -6.7 20 68 -11.6 11.1
06:35 1025 30.27 854 25.22 -6.7 20 67 -11.8 10.8
06:40 1025 30.27 854 25.22 -6.9 19.7 67 -12 10.4
06:45 1025 30.27 854 25.22 -6.7 20 65 -12.2 10.1
06:50 1025 30.27 854 25.22 -6.4 20.5 65 -12 10.4
06:55 1025 30.27 854 25.22 -6.3 20.7 64 -12 10.4
07:00 1025 30.27 854 25.22 -6.2 20.9 65 -11.7 10.9
07:05 1025 30.27 854 25.22 -6.2 20.9 66 -11.6 11.2
07:10 1025 30.27 854 25.22 -6.1 21.1 68 -11 12.2
07:15 1025 30.27 854 25.22 -6.4 20.6 69 -11.1 12
07:20 1025 30.27 854 25.22 -6.4 20.5 69 -11.2 11.8
07:25 1025 30.27 854 25.22 -6.4 20.5 68 -11.4 11.5
07:30 1025 30.27 854 25.22 -6.6 20.1 72 -10.8 12.5
07:35 1025 30.27 854 25.22 -7.3 18.9 74 -11.1 12
07:40 1025 30.27 854 25.22 -7.1 19.3 71 -11.5 11.2
07:45 1025 30.27 854 25.22 -7 19.4 72 -11.3 11.7
07:50 1025 30.27 854 25.22 -7.5 18.5 72 -11.7 11
07:55 1025 30.27 854 25.22 -7 19.4 66 -12.4 9.7
08:00 1025 30.27 854 25.22 -6.9 19.5 67 -12.1 10.3
08:05 1025 30.27 854 25.22 -6.7 20 66 -12 10.5
08:10 1025 30.27 854 25.22 -6.5 20.4 65 -12 10.5
08:15 1025 30.27 854 25.22 -6.1 21 63 -12.1 10.1
08:20 1025 30.27 854 25.22 -5.7 21.7 61 -12.1 10.2
08:25 1025 30.27 854 25.22 -5.6 22 61 -12 10.4
08:30 1025 30.27 854 25.22 -5.6 21.9 59 -12.3 9.9
08:35 1025 30.27 854 25.22 -5.3 22.5 59 -12 10.3
08:40 1025 30.27 854 25.22 -4.8 23.3 57 -12.2 10.1
08:45 1025 30.27 854 25.22 -4.3 24.2 55 -12.1 10.2
08:50 1025 30.27 854 25.22 -4.1 24.5 56 -11.8 10.8
08:55 1025 30.27 854 25.22 -4.1 24.6 55 -12 10.5
09:00 1025 30.27 854 25.22 -4 24.9 57 -11.3 11.7
09:05 1025 30.27 854 25.22 -4.2 24.4 57 -11.5 11.3
09:10 1025 30.27 854 25.22 -4 24.9 55 -11.8 10.8
09:15 1025 30.27 854 25.22 -3.4 25.9 54 -11.4 11.6
09:20 1025 30.27 854 25.22 -2.8 26.9 54 -10.9 12.3
09:25 1025 30.27 854 25.22 -2.6 27.3 56 -10.1 13.7
09:30 1025 30.27 854 25.22 -2.4 27.8 55 -10.2 13.6
09:35 1025 30.27 854 25.22 -1.8 28.8 53 -10.1 13.8
09:40 1025 30.27 854 25.22 -1.5 29.3 53 -9.9 14.2
09:45 1025 30.27 854 25.22 -1.7 28.9 55 -9.7 14.6
09:50 1025 30.27 854 25.22 -1.4 29.5 54 -9.6 14.7
09:55 1025 30.27 854 25.22 -1.2 29.8 53 -9.6 14.8
10:00 1025 30.27 854 25.22 -1.1 30 51 -10 14
10:05 1025 30.27 854 25.22 -1 30.2 51 -10 14
10:10 1025 30.27 854 25.22 -0.6 31 48 -10.3 13.4
10:15 1025 30.27 854 25.22 -0 31.9 47 -10.1 13.8
10:20 1025 30.27 854 25.22 0.6 33 42 -10.9 12.4
10:25 1025 30.27 854 25.22 0.7 33.3 44 -10.3 13.5
10:30 1025 30.27 854 25.22 1.1 34 39 -11.3 11.7
10:35 1025 30.27 854 25.22 0.9 33.7 42 -10.6 12.9
10:40 1024 30.24 854 25.22 1.1 34 44 -9.8 14.4
10:45 1024 30.24 854 25.22 1.1 34 43 -10.1 13.8
10:50 1024 30.24 854 25.22 1.4 34.6 39 -11 12.2
10:55 1024 30.24 853 25.19 1.8 35.3 40 -10.4 13.4
11:00 1024 30.24 853 25.19 2 35.6 37 -11.4 11.5
11:05 1024 30.24 853 25.19 2.7 36.9 37 -10.6 13
11:10 1024 30.24 853 25.19 2.7 36.9 33 -11.9 10.6
11:15 1024 30.24 853 25.19 2.6 36.7 33 -11.9 10.5
11:20 1024 30.24 853 25.19 2.5 36.6 33 -12 10.3
11:25 1024 30.24 853 25.19 3 37.4 35 -11 12.3
11:30 1024 30.24 853 25.19 3.5 38.2 34 -11.1 12
11:35 1024 30.24 853 25.19 3.8 38.8 33 -11.1 12
11:40 1024 30.24 853 25.19 3.8 38.9 34 -10.8 12.6
11:45 1023 30.21 853 25.19 3.6 38.4 34 -11.1 12.1
11:50 1023 30.21 853 25.19 3.2 37.8 36 -10.5 13
11:55 1023 30.21 853 25.19 3.6 38.6 35 -10.4 13.3
12:00 1023 30.21 852 25.16 3.3 38 34 -11.1 12.1
12:05 1023 30.21 852 25.16 3.8 38.8 34 -10.6 12.9
12:10 1023 30.21 852 25.16 4.6 40.2 31 -11 12.1
12:15 1023 30.21 852 25.16 4.4 40 31 -11.2 11.9
12:20 1023 30.21 852 25.16 4.5 40.1 32 -10.7 12.7
12:25 1023 30.21 852 25.16 4.8 40.6 33 -10 13.9
12:30 1023 30.21 852 25.16 5.3 41.5 32 -10 14
12:35 1023 30.21 852 25.16 5.6 42.1 29 -11 12.1
12:40 1023 30.21 852 25.16 5.8 42.5 32 -9.8 14.4
12:45 1023 30.21 852 25.16 6 42.7 28 -11.2 11.9
12:50 1023 30.21 852 25.16 4.6 40.3 32 -10.6 12.9
12:55 1023 30.21 852 25.16 3.8 38.9 31 -11.7 10.9
13:00 1023 30.21 852 25.16 4.3 39.8 30 -11.9 10.5
13:05 1022 30.18 852 25.16 4.6 40.3 30 -11.4 11.5
13:10 1022 30.18 852 25.16 4.8 40.6 29 -11.6 11.1
13:15 1022 30.18 852 25.16 5.1 41.1 31 -10.8 12.6
13:20 1022 30.18 852 25.16 5.7 42.3 30 -10.7 12.7
13:25 1022 30.18 852 25.16 6.1 42.9 29 -10.8 12.5
13:30 1022 30.18 851 25.13 6 42.8 29 -10.8 12.5
13:35 1022 30.18 851 25.13 5.9 42.7 27 -11.8 10.7
13:40 1022 30.18 851 25.13 6.2 43.1 30 -10.4 13.4
13:45 1022 30.18 851 25.13 5.7 42.3 29 -11.2 11.9
13:50 1022 30.18 851 25.13 5.8 42.5 28 -11.3 11.7
13:55 1022 30.18 851 25.13 6.3 43.3 27 -11.2 11.9
14:00 1022 30.18 851 25.13 6.6 43.9 28 -10.7 12.8
14:05 1022 30.18 851 25.13 6.6 43.9 28 -10.5 13.1
14:10 1022 30.18 851 25.13 6.2 43.1 29 -10.8 12.6
14:15 1022 30.18 851 25.13 6.2 43.2 28 -11 12.1
14:20 1022 30.18 851 25.13 6.6 43.8 26 -11.5 11.3
14:25 1022 30.18 851 25.13 6.8 44.2 26 -11.5 11.3
14:30 1022 30.18 851 25.13 6.8 44.3 26 -11.3 11.7
14:35 1022 30.18 851 25.13 7 44.5 26 -11.2 11.8
14:40 1022 30.18 851 25.13 6.5 43.8 26 -11.7 10.9
14:45 1022 30.18 851 25.13 6.3 43.3 26 -11.8 10.8
14:50 1022 30.18 851 25.13 5.9 42.7 29 -10.9 12.3
14:55 1022 30.18 851 25.13 6.7 44 28 -10.7 12.7
15:00 1022 30.18 851 25.13 6.9 44.5 26 -11.1 12.1
15:05 1022 30.18 851 25.13 6.4 43.4 27 -11.1 12
15:10 1022 30.18 851 25.13 6.5 43.8 28 -10.8 12.6
15:15 1022 30.18 851 25.13 6.2 43.2 28 -10.9 12.3
15:20 1022 30.18 851 25.13 6.4 43.5 27 -11.4 11.5
15:25 1022 30.18 851 25.13 6.9 44.4 27 -11.1 12.1
15:30 1022 30.18 851 25.13 6.9 44.5 27 -11 12.1
15:35 1022 30.18 851 25.13 7 44.6 26 -11.3 11.6
15:40 1022 30.18 851 25.13 6.6 43.8 26 -11.4 11.4
15:45 1022 30.18 851 25.13 6.4 43.4 27 -11.2 11.9
15:50 1022 30.18 851 25.13 5.9 42.7 28 -11.3 11.6
15:55 1022 30.18 851 25.13 6 42.9 28 -11.2 11.8
16:00 1022 30.18 851 25.13 6.5 43.8 27 -11.4 11.5
16:05 1022 30.18 851 25.13 6.9 44.5 26 -11.3 11.7
16:10 1022 30.18 851 25.13 7 44.5 28 -10.4 13.3
16:15 1022 30.18 851 25.13 6.9 44.5 27 -10.7 12.8
16:20 1022 30.18 851 25.13 6.5 43.8 30 -10 14
16:25 1022 30.18 851 25.13 6 42.8 30 -10.2 13.7
16:30 1022 30.18 851 25.13 5.4 41.7 31 -10.4 13.2
16:35 1022 30.18 851 25.13 4.9 40.8 32 -10.3 13.4
16:40 1022 30.18 851 25.13 4.6 40.3 34 -9.9 14.2
16:45 1022 30.18 851 25.13 4.2 39.6 35 -9.8 14.4
16:50 1022 30.18 851 25.13 3.7 38.7 38 -9.3 15.3
16:55 1022 30.18 851 25.13 3.5 38.3 41 -8.6 16.5
17:00 1022 30.18 851 25.13 3 37.5 44 -8.1 17.4
17:05 1022 30.18 851 25.13 2.5 36.6 47 -7.6 18.4
17:10 1022 30.18 851 25.13 2.5 36.6 50 -6.8 19.8
17:15 1022 30.18 851 25.13 2.3 36.2 51 -6.7 19.9
17:20 1022 30.18 851 25.13 2.1 35.8 54 -6.3 20.6
17:25 1022 30.18 851 25.13 1.8 35.2 56 -6 21.2
17:30 1022 30.18 851 25.13 1.4 34.5 60 -5.5 22
17:35 1022 30.18 851 25.13 1.1 33.9 58 -6.3 20.6
17:40 1022 30.18 851 25.13 1 33.8 59 -6.1 21.1
17:45 1022 30.18 851 25.13 0.9 33.7 58 -6.4 20.4
17:50 1022 30.18 851 25.13 1.2 34.2 45 -9.5 14.9
17:55 1022 30.18 851 25.13 2 35.5 44 -9.2 15.5
18:00 1022 30.18 851 25.13 1.7 35.1 45 -8.9 16
18:05 1022 30.18 851 25.13 1.3 34.3 46 -9.1 15.5
18:10 1022 30.18 851 25.13 1 33.9 47 -9.2 15.5
18:15 1022 30.18 851 25.13 0.8 33.5 46 -9.4 15.1
18:20 1022 30.18 851 25.13 0.8 33.5 47 -9.3 15.3
18:25 1022 30.18 851 25.13 1 33.7 46 -9.5 15
18:30 1022 30.18 851 25.13 1.1 33.9 46 -9.4 15.2
18:35 1022 30.18 851 25.13 1.2 34.1 44 -9.7 14.5
18:40 1022 30.18 851 25.13 1.3 34.4 43 -9.9 14.2
18:45 1022 30.18 851 25.13 1.2 34.2 43 -9.9 14.2
18:50 1022 30.18 851 25.13 1 33.7 47 -9 15.7
18:55 1022 30.18 851 25.13 0.8 33.4 47 -9.2 15.4
19:00 1022 30.18 851 25.13 0.9 33.5 46 -9.6 14.7
19:05 1022 30.18 851 25.13 1.2 34.1 41 -10.6 12.9
19:10 1022 30.18 851 25.13 1.5 34.8 40 -10.7 12.7
19:15 1022 30.18 851 25.13 1.8 35.3 38 -11 12.3
19:20 1022 30.18 851 25.13 2.2 36 36 -11.2 11.9
19:25 1022 30.18 851 25.13 2.2 35.9 39 -10.5 13.1
19:30 1022 30.18 851 25.13 2 35.7 37 -11.2 11.9
19:35 1022 30.18 851 25.13 2.2 36 36 -11.4 11.5
19:40 1022 30.18 851 25.13 2.4 36.4 41 -9.5 15
19:45 1022 30.18 851 25.13 1.9 35.4 41 -10 14
19:50 1022 30.18 851 25.13 1.8 35.2 44 -9.2 15.4
19:55 1022 30.18 851 25.13 0.9 33.5 48 -9 15.8
20:00 1022 30.18 851 25.13 0.6 33.1 47 -9.5 14.9
20:05 1022 30.18 851 25.13 0.7 33.2 44 -10.3 13.5
20:10 1022 30.18 851 25.13 0.5 33 43 -10.6 12.9
20:15 1022 30.18 851 25.13 0.7 33.2 43 -10.5 13
20:20 1022 30.18 851 25.13 0.5 32.9 44 -10.5 13.1
20:25 1022 30.18 851 25.13 0.5 32.8 44 -10.4 13.2
20:30 1022 30.18 851 25.13 0.2 32.4 45 -10.2 13.6
20:35 1022 30.18 851 25.13 0.5 32.9 42 -10.9 12.4
20:40 1022 30.18 851 25.13 1.1 34 40 -10.9 12.4
20:45 1022 30.18 851 25.13 1.5 34.7 38 -11.4 11.4
20:50 1022 30.18 851 25.13 1.4 34.5 41 -10.4 13.2
20:55 1022 30.18 851 25.13 0.8 33.5 42 -10.7 12.8
21:00 1022 30.18 851 25.13 0.4 32.7 43 -10.7 12.8
21:05 1022 30.18 851 25.13 0.7 33.2 43 -10.6 12.9
21:10 1022 30.18 851 25.13 0.9 33.6 42 -10.7 12.7
21:15 1022 30.18 851 25.13 1 33.8 42 -10.6 13
21:20 1022 30.18 851 25.13 0.6 33.1 44 -10.3 13.5
21:25 1022 30.18 851 25.13 0.7 33.3 43 -10.6 12.9
21:30 1022 30.18 851 25.13 0.8 33.4 43 -10.3 13.5
21:35 1022 30.18 851 25.13 0.7 33.2 44 -10.4 13.4
21:40 1022 30.18 851 25.13 0.9 33.6 42 -10.6 13
21:45 1022 30.18 851 25.13 0.9 33.6 42 -10.6 13
21:50 1022 30.18 851 25.13 0.8 33.5 43 -10.4 13.2
21:55 1022 30.18 851 25.13 0.4 32.7 45 -10.2 13.7
22:00 1022 30.18 851 25.13 0.1 32.3 45 -10.4 13.3
22:05 1022 30.18 851 25.13 0.2 32.4 45 -10.5 13.1
22:10 1022 30.18 851 25.13 0.1 32.2 46 -10.3 13.5
22:15 1022 30.18 851 25.13 -0.2 31.6 44 -11 12.3
22:20 1022 30.18 851 25.13 0.3 32.5 41 -11.4 11.4
22:25 1022 30.18 851 25.13 1.2 34.1 40 -11 12.2
22:30 1022 30.18 851 25.13 1.3 34.4 42 -10.3 13.5
22:35 1022 30.18 851 25.13 0.7 33.2 47 -9.4 15.1
22:40 1022 30.18 851 25.13 0.6 33 46 -9.8 14.4
22:45 1022 30.18 851 25.13 1.2 34.2 44 -9.8 14.3
22:50 1022 30.18 851 25.13 1.2 34.1 45 -9.6 14.7
22:55 1022 30.18 852 25.16 1.1 34 43 -10.1 13.7
23:00 1022 30.18 852 25.16 1.6 34.9 40 -10.6 13
23:05 1022 30.18 852 25.16 1.6 34.9 41 -10.4 13.3
23:10 1022 30.18 852 25.16 1.3 34.3 41 -10.7 12.7
23:15 1022 30.18 852 25.16 1 33.7 40 -11.1 12
23:20 1022 30.18 852 25.16 0.9 33.6 40 -11.2 11.9
23:25 1022 30.18 852 25.16 0.8 33.5 41 -11 12.1
23:30 1022 30.18 852 25.16 0.4 32.7 43 -10.8 12.6
23:35 1022 30.18 852 25.16 0.2 32.4 41 -11.5 11.4
23:40 1022 30.18 852 25.16 0.6 33.1 42 -10.9 12.3
23:45 1022 30.18 852 25.16 0.2 32.4 45 -10.4 13.3
23:50 1022 30.18 852 25.16 0.7 33.2 40 -11.5 11.2
23:55 1022 30.18 852 25.16 1.2 34.2 39 -11.3 11.6
24:00 1022 30.18 852 25.16 1.2 34.1 41 -10.8 12.6